createdAt,value
2023-05-22T00:02:04.688Z,14.40
2023-05-22T00:04:32.402Z,14.27
2023-05-22T00:07:00.003Z,14.31
2023-05-22T00:09:27.275Z,14.30
2023-05-22T00:11:54.579Z,14.24
2023-05-22T00:14:21.771Z,14.31
2023-05-22T00:16:49.063Z,14.44
2023-05-22T00:19:16.952Z,14.41
2023-05-22T00:21:45.250Z,14.33
2023-05-22T00:24:12.828Z,14.40
2023-05-22T00:26:40.129Z,14.33
2023-05-22T00:29:07.522Z,14.32
2023-05-22T00:31:34.987Z,14.25
2023-05-22T00:34:02.443Z,14.29
2023-05-22T00:36:29.878Z,14.28
2023-05-22T00:38:57.264Z,14.20
2023-05-22T00:41:24.944Z,14.13
2023-05-22T00:43:52.234Z,14.04
2023-05-22T00:46:21.780Z,14.01
2023-05-22T00:48:49.384Z,13.89
2023-05-22T00:51:16.766Z,13.77
2023-05-22T00:53:45.125Z,13.74
2023-05-22T00:56:13.155Z,13.76
2023-05-22T00:58:41.400Z,13.66
2023-05-22T01:01:11.589Z,13.53
2023-05-22T01:03:45.087Z,13.58
2023-05-22T01:06:21.561Z,13.61
2023-05-22T01:08:48.882Z,13.64
2023-05-22T01:11:28.419Z,13.67
2023-05-22T01:14:26.140Z,13.60
2023-05-22T01:17:13.747Z,13.68
2023-05-22T01:20:01.308Z,13.84
2023-05-22T01:23:00.227Z,13.81
2023-05-22T01:25:53.073Z,13.81
2023-05-22T01:28:42.372Z,13.81
2023-05-22T01:31:15.920Z,13.86
2023-05-22T01:33:48.951Z,13.91
2023-05-22T01:36:22.478Z,13.80
2023-05-22T01:38:51.400Z,13.84
2023-05-22T01:41:19.439Z,13.85
2023-05-22T01:43:48.177Z,13.69
2023-05-22T01:46:15.547Z,13.66
2023-05-22T01:48:42.910Z,13.63
2023-05-22T01:51:38.005Z,13.66
2023-05-22T01:54:39.316Z,13.59
2023-05-22T01:57:25.008Z,13.58
2023-05-22T02:00:12.112Z,13.50
2023-05-22T02:02:53.736Z,13.39
2023-05-22T02:05:23.456Z,13.24
2023-05-22T02:07:51.457Z,13.34
2023-05-22T02:10:20.584Z,13.26
2023-05-22T02:12:48.458Z,13.20
2023-05-22T02:15:16.865Z,13.09
2023-05-22T02:17:45.628Z,13.00
2023-05-22T02:20:15.940Z,13.01
2023-05-22T02:22:47.053Z,12.96
2023-05-22T02:25:17.207Z,12.99
2023-05-22T02:27:49.893Z,12.94
2023-05-22T02:30:17.437Z,13.06
2023-05-22T02:32:47.845Z,12.94
2023-05-22T02:35:15.122Z,12.82
2023-05-22T02:37:42.395Z,12.81
2023-05-22T02:40:10.608Z,12.87
2023-05-22T02:42:38.129Z,12.89
2023-05-22T02:45:06.816Z,12.83
2023-05-22T02:47:34.113Z,12.82
2023-05-22T02:50:01.604Z,12.97
2023-05-22T02:52:31.011Z,13.10
2023-05-22T02:54:58.371Z,13.13
2023-05-22T02:57:25.925Z,12.97
2023-05-22T02:59:54.194Z,12.98
2023-05-22T03:02:21.546Z,12.79
2023-05-22T03:04:49.051Z,12.86
2023-05-22T03:07:17.204Z,13.00
2023-05-22T03:09:44.512Z,13.20
2023-05-22T03:12:12.448Z,13.24
2023-05-22T03:14:39.779Z,13.32
2023-05-22T03:17:07.075Z,13.43
2023-05-22T03:19:34.530Z,13.54
2023-05-22T03:22:02.010Z,13.63
2023-05-22T03:24:30.632Z,13.62
2023-05-22T03:26:59.479Z,13.56
2023-05-22T03:29:36.541Z,13.52
2023-05-22T03:32:04.684Z,13.53
2023-05-22T03:34:32.442Z,13.57
2023-05-22T03:37:01.046Z,13.70
2023-05-22T03:39:28.496Z,13.89
2023-05-22T03:42:14.319Z,14.06
2023-05-22T03:44:41.631Z,14.30
2023-05-22T03:47:09.040Z,14.40
2023-05-22T03:49:36.323Z,14.53
2023-05-22T03:52:05.737Z,14.76
2023-05-22T03:54:33.009Z,14.88
2023-05-22T03:57:00.850Z,15.20
2023-05-22T03:59:28.110Z,15.34
2023-05-22T04:01:58.169Z,15.59
2023-05-22T04:04:27.018Z,15.87
2023-05-22T04:06:54.457Z,16.31
2023-05-22T04:09:21.834Z,16.66
2023-05-22T04:11:49.631Z,16.86
2023-05-22T04:14:16.959Z,17.26
2023-05-22T04:16:44.271Z,17.23
2023-05-22T04:19:12.571Z,17.66
2023-05-22T04:21:39.974Z,17.63
2023-05-22T04:24:09.601Z,17.92
2023-05-22T04:26:40.459Z,18.21
2023-05-22T04:29:10.739Z,18.61
2023-05-22T04:31:38.293Z,18.65
2023-05-22T04:34:06.429Z,18.86
2023-05-22T04:36:33.740Z,19.12
2023-05-22T04:39:05.074Z,19.32
2023-05-22T04:41:32.611Z,19.46
2023-05-22T04:44:00.466Z,19.43
2023-05-22T04:46:28.856Z,19.65
2023-05-22T04:48:56.527Z,19.95
2023-05-22T04:51:23.853Z,20.52
2023-05-22T04:53:52.101Z,20.80
2023-05-22T04:56:31.829Z,21.15
2023-05-22T04:59:04.905Z,21.47
2023-05-22T05:01:35.292Z,21.85
2023-05-22T05:04:03.998Z,21.81
2023-05-22T05:06:31.542Z,21.77
2023-05-22T05:08:58.841Z,22.46
2023-05-22T05:11:26.298Z,22.99
2023-05-22T05:13:53.590Z,23.31
2023-05-22T05:16:21.126Z,23.66
2023-05-22T05:18:48.431Z,23.83
2023-05-22T05:21:15.770Z,24.24
2023-05-22T05:23:43.209Z,23.81
2023-05-22T05:26:10.576Z,24.03
2023-05-22T05:28:38.297Z,25.17
2023-05-22T05:31:07.841Z,25.22
2023-05-22T05:33:58.398Z,24.80
2023-05-22T05:36:48.702Z,25.27
2023-05-22T05:39:17.530Z,25.83
2023-05-22T05:41:44.840Z,26.29
2023-05-22T05:44:12.296Z,26.78
2023-05-22T05:46:39.773Z,27.16
2023-05-22T05:49:12.123Z,26.92
2023-05-22T05:51:41.209Z,27.16
2023-05-22T05:54:08.869Z,27.80
2023-05-22T05:56:37.722Z,28.47
2023-05-22T05:59:05.509Z,28.68
2023-05-22T06:01:53.321Z,29.01
2023-05-22T06:04:25.607Z,28.45
2023-05-22T06:06:53.840Z,29.17
2023-05-22T06:09:36.459Z,29.10
2023-05-22T06:12:12.957Z,28.93
2023-05-22T06:14:43.991Z,29.80
2023-05-22T06:17:11.287Z,29.64
2023-05-22T06:19:41.241Z,28.75
2023-05-22T06:22:08.858Z,29.00
2023-05-22T06:24:38.220Z,29.81
2023-05-22T06:27:11.778Z,30.44
2023-05-22T06:29:39.144Z,30.89
2023-05-22T06:32:07.580Z,29.72
2023-05-22T06:34:36.969Z,28.29
2023-05-22T06:37:05.925Z,28.06
2023-05-22T06:39:39.735Z,28.41
2023-05-22T06:42:11.853Z,28.27
2023-05-22T06:45:08.918Z,28.75
2023-05-22T06:47:46.662Z,28.43
2023-05-22T06:50:14.115Z,29.25
2023-05-22T06:52:41.983Z,29.71
2023-05-22T06:55:11.478Z,30.58
2023-05-22T06:57:51.623Z,30.73
2023-05-22T07:00:21.992Z,32.58
2023-05-22T07:03:12.640Z,32.49
2023-05-22T07:05:58.080Z,33.02
2023-05-22T07:08:28.369Z,33.31
2023-05-22T07:10:57.217Z,34.44
2023-05-22T07:13:25.067Z,33.70
2023-05-22T07:15:52.422Z,34.19
2023-05-22T07:18:19.752Z,33.81
2023-05-22T07:20:47.411Z,34.72
2023-05-22T07:23:18.651Z,34.70
2023-05-22T07:25:46.131Z,35.56
2023-05-22T07:28:15.322Z,34.48
2023-05-22T07:30:52.166Z,32.57
2023-05-22T07:33:19.793Z,31.42
2023-05-22T07:35:47.384Z,31.29
2023-05-22T07:38:14.860Z,31.84
2023-05-22T07:40:49.677Z,32.54
2023-05-22T07:43:17.559Z,33.81
2023-05-22T07:45:45.251Z,34.56
2023-05-22T07:48:15.334Z,35.25
2023-05-22T07:50:45.413Z,35.15
2023-05-22T07:53:12.947Z,35.05
2023-05-22T07:55:43.242Z,35.10
2023-05-22T07:58:10.928Z,33.44
2023-05-22T08:00:41.954Z,32.42
2023-05-22T08:03:09.372Z,30.41
2023-05-22T08:05:36.666Z,30.92
2023-05-22T08:08:04.829Z,31.59
2023-05-22T08:10:46.510Z,31.42
2023-05-22T08:13:16.904Z,31.71
2023-05-22T08:15:44.267Z,31.04
2023-05-22T08:18:11.875Z,30.53
2023-05-22T08:20:39.352Z,30.36
2023-05-22T08:23:06.982Z,29.03
2023-05-22T08:25:34.379Z,28.54
2023-05-22T08:28:01.663Z,28.19
2023-05-22T08:30:28.928Z,29.19
2023-05-22T08:32:56.386Z,29.85
2023-05-22T08:35:23.713Z,30.28
2023-05-22T08:37:51.092Z,30.71
2023-05-22T08:40:22.082Z,31.94
2023-05-22T08:42:54.403Z,33.08
2023-05-22T08:45:21.976Z,34.15
2023-05-22T08:47:55.356Z,35.42
2023-05-22T08:50:24.645Z,34.78
2023-05-22T08:52:52.930Z,34.26
2023-05-22T08:55:20.784Z,33.55
2023-05-22T08:57:49.539Z,34.28
2023-05-22T09:00:18.438Z,35.07
2023-05-22T09:02:47.097Z,35.41
2023-05-22T09:05:16.073Z,35.12
2023-05-22T09:07:43.816Z,35.49
2023-05-22T09:10:11.560Z,34.55
2023-05-22T09:12:38.954Z,33.21
2023-05-22T09:15:13.723Z,34.12
2023-05-22T09:17:41.544Z,35.42
2023-05-22T09:20:13.427Z,35.28
2023-05-22T09:22:40.765Z,36.27
2023-05-22T09:25:08.696Z,36.27
2023-05-22T09:27:36.467Z,36.89
2023-05-22T09:30:03.998Z,36.62
2023-05-22T09:32:31.629Z,37.06
2023-05-22T09:35:06.785Z,35.11
2023-05-22T09:37:35.875Z,34.44
2023-05-22T09:40:12.261Z,33.83
2023-05-22T09:42:39.563Z,34.76
2023-05-22T09:45:08.854Z,34.82
2023-05-22T09:47:36.395Z,34.77
2023-05-22T09:50:07.258Z,34.00
2023-05-22T09:52:37.301Z,33.94
2023-05-22T09:55:07.393Z,35.09
2023-05-22T09:57:45.157Z,35.60
2023-05-22T10:00:17.662Z,35.31
2023-05-22T10:02:50.960Z,35.62
2023-05-22T10:05:22.270Z,35.59
2023-05-22T10:08:01.773Z,36.04
2023-05-22T10:10:29.100Z,35.01
2023-05-22T10:13:05.234Z,35.10
2023-05-22T10:15:32.733Z,33.98
2023-05-22T10:18:00.774Z,33.79
2023-05-22T10:20:30.393Z,32.45
2023-05-22T10:22:57.894Z,33.27
2023-05-22T10:25:26.145Z,32.67
2023-05-22T10:27:55.003Z,32.86
2023-05-22T10:30:40.870Z,32.57
2023-05-22T10:33:39.962Z,32.19
2023-05-22T10:37:12.959Z,31.44
2023-05-22T10:40:12.019Z,31.48
2023-05-22T10:42:39.713Z,32.57
2023-05-22T10:45:10.999Z,32.37
2023-05-22T10:47:38.434Z,32.40
2023-05-22T10:50:11.247Z,33.25
2023-05-22T10:52:40.028Z,33.03
2023-05-22T10:55:11.836Z,32.91
2023-05-22T10:57:40.259Z,32.52
2023-05-22T11:00:15.196Z,32.80
2023-05-22T11:02:46.412Z,31.71
2023-05-22T11:05:21.746Z,30.70
2023-05-22T11:07:49.526Z,30.72
2023-05-22T11:10:27.260Z,30.77
2023-05-22T11:13:12.466Z,30.40
2023-05-22T11:15:45.849Z,30.04
2023-05-22T11:18:15.173Z,29.80
2023-05-22T11:20:43.992Z,29.75
2023-05-22T11:23:11.988Z,29.29
2023-05-22T11:25:42.184Z,29.25
2023-05-22T11:28:11.579Z,29.45
2023-05-22T11:30:39.954Z,28.39
2023-05-22T11:33:07.704Z,28.36
2023-05-22T11:35:35.685Z,27.28
2023-05-22T11:38:08.511Z,27.30
2023-05-22T11:40:35.957Z,27.32
2023-05-22T11:43:04.803Z,27.11
2023-05-22T11:45:32.189Z,27.05
2023-05-22T11:47:59.671Z,26.87
2023-05-22T11:50:41.144Z,25.70
2023-05-22T11:53:10.280Z,26.23
2023-05-22T11:55:37.704Z,26.58
2023-05-22T11:58:04.967Z,26.81
2023-05-22T12:00:32.657Z,26.76
2023-05-22T12:03:00.226Z,27.17
2023-05-22T12:05:27.878Z,27.26
2023-05-22T12:07:55.456Z,27.07
2023-05-22T12:10:22.994Z,27.00
2023-05-22T12:12:50.507Z,26.24
2023-05-22T12:15:21.310Z,26.19
2023-05-22T12:17:48.826Z,26.02
2023-05-22T12:20:16.614Z,26.09
2023-05-22T12:22:44.377Z,26.17
2023-05-22T12:25:20.433Z,26.47
2023-05-22T12:27:48.135Z,26.56
2023-05-22T12:30:16.777Z,26.70
2023-05-22T12:32:49.604Z,26.79
2023-05-22T12:35:18.124Z,26.97
2023-05-22T12:37:50.698Z,27.19
2023-05-22T12:40:18.485Z,27.24
2023-05-22T12:42:46.195Z,27.31
2023-05-22T12:45:14.094Z,27.34
2023-05-22T12:47:41.498Z,26.69
2023-05-22T12:50:09.369Z,26.66
2023-05-22T12:52:36.874Z,26.68
2023-05-22T12:55:04.756Z,26.59
2023-05-22T12:57:32.102Z,26.85
2023-05-22T12:59:59.426Z,27.16
2023-05-22T13:02:26.931Z,27.11
2023-05-22T13:04:54.329Z,26.87
2023-05-22T13:07:21.810Z,26.58
2023-05-22T13:09:49.175Z,26.61
2023-05-22T13:12:16.778Z,25.98
2023-05-22T13:14:44.195Z,25.88
2023-05-22T13:17:11.800Z,26.52
2023-05-22T13:19:39.252Z,25.98
2023-05-22T13:22:07.838Z,26.12
2023-05-22T13:24:35.220Z,26.38
2023-05-22T13:27:02.538Z,26.39
2023-05-22T13:29:30.089Z,25.81
2023-05-22T13:31:57.386Z,25.99
2023-05-22T13:34:25.061Z,26.37
2023-05-22T13:36:52.682Z,26.64
2023-05-22T13:39:20.046Z,26.22
2023-05-22T13:41:47.623Z,26.51
2023-05-22T13:44:14.979Z,26.52
2023-05-22T13:46:42.344Z,26.56
2023-05-22T13:49:09.650Z,26.50
2023-05-22T13:51:38.112Z,26.13
2023-05-22T13:54:05.645Z,25.62
2023-05-22T13:56:32.874Z,25.73
2023-05-22T13:59:00.444Z,25.64
2023-05-22T14:01:28.162Z,25.83
2023-05-22T14:03:55.535Z,25.92
2023-05-22T14:06:22.965Z,26.06
2023-05-22T14:08:50.570Z,26.05
2023-05-22T14:11:17.874Z,26.07
2023-05-22T14:13:45.264Z,25.79
2023-05-22T14:16:12.725Z,25.37
2023-05-22T14:18:40.272Z,25.12
2023-05-22T14:21:07.662Z,25.38
2023-05-22T14:23:35.144Z,25.08
2023-05-22T14:26:02.554Z,25.29
2023-05-22T14:28:31.882Z,25.11
2023-05-22T14:30:59.295Z,25.21
2023-05-22T14:33:26.643Z,25.19
2023-05-22T14:35:54.154Z,25.26
2023-05-22T14:38:21.388Z,25.46
2023-05-22T14:40:48.715Z,25.15
2023-05-22T14:43:16.193Z,24.91
2023-05-22T14:45:44.194Z,24.72
2023-05-22T14:48:12.891Z,24.71
2023-05-22T14:50:40.222Z,24.48
2023-05-22T14:53:07.605Z,24.23
2023-05-22T14:55:35.066Z,24.21
2023-05-22T14:58:02.361Z,24.01
2023-05-22T15:00:29.645Z,24.07
2023-05-22T15:02:57.265Z,24.32
2023-05-22T15:05:26.633Z,24.12
2023-05-22T15:07:54.679Z,24.06
2023-05-22T15:10:22.006Z,23.80
2023-05-22T15:12:49.338Z,23.78
2023-05-22T15:15:16.691Z,23.50
2023-05-22T15:17:44.188Z,23.71
2023-05-22T15:20:13.319Z,23.65
2023-05-22T15:22:40.727Z,23.75
2023-05-22T15:25:20.170Z,23.90
2023-05-22T15:27:47.530Z,23.82
2023-05-22T15:30:17.150Z,23.57
2023-05-22T15:32:44.928Z,23.58
2023-05-22T15:35:14.213Z,23.22
2023-05-22T15:37:41.934Z,23.35
2023-05-22T15:40:11.482Z,23.18
2023-05-22T15:42:38.928Z,23.32
2023-05-22T15:45:07.055Z,23.32
2023-05-22T15:47:34.470Z,23.19
2023-05-22T15:50:01.760Z,23.31
2023-05-22T15:52:29.096Z,23.00
2023-05-22T15:57:26.962Z,23.11
2023-05-22T15:59:54.512Z,22.83
2023-05-22T16:02:22.026Z,22.73
2023-05-22T16:04:49.939Z,22.61
2023-05-22T16:07:20.387Z,22.51
2023-05-22T16:09:50.131Z,22.54
2023-05-22T16:12:18.212Z,22.37
2023-05-22T16:14:45.630Z,22.45
2023-05-22T16:17:12.911Z,22.50
2023-05-22T16:19:40.126Z,22.18
2023-05-22T16:22:07.516Z,22.32
2023-05-22T16:24:34.742Z,22.06
2023-05-22T16:27:02.178Z,22.05
2023-05-22T16:29:30.507Z,22.17
2023-05-22T16:31:57.814Z,22.19
2023-05-22T16:34:25.336Z,22.21
2023-05-22T16:36:52.648Z,22.29
2023-05-22T16:39:20.232Z,22.42
2023-05-22T16:41:47.628Z,22.56
2023-05-22T16:44:14.983Z,22.45
2023-05-22T16:46:42.317Z,22.43
2023-05-22T16:49:09.693Z,22.18
2023-05-22T16:51:37.100Z,22.05
2023-05-22T16:54:04.679Z,21.94
2023-05-22T16:56:34.065Z,21.80
2023-05-22T16:59:02.150Z,21.92
2023-05-22T17:01:29.680Z,21.62
2023-05-22T17:03:57.024Z,21.55
2023-05-22T17:06:24.573Z,21.58
2023-05-22T17:08:52.043Z,21.40
2023-05-22T17:11:19.415Z,21.35
2023-05-22T17:13:46.913Z,21.15
2023-05-22T17:16:14.382Z,21.17
2023-05-22T17:18:41.910Z,21.26
2023-05-22T17:21:09.469Z,21.23
2023-05-22T17:23:37.432Z,21.07
2023-05-22T17:26:05.230Z,21.05
2023-05-22T17:28:32.761Z,21.08
2023-05-22T17:31:00.727Z,20.84
2023-05-22T17:33:28.289Z,20.75
2023-05-22T17:35:55.686Z,20.76
2023-05-22T17:38:23.120Z,20.55
2023-05-22T17:40:52.030Z,20.57
2023-05-22T17:43:19.973Z,20.62
2023-05-22T17:45:50.615Z,20.52
2023-05-22T17:48:23.725Z,20.59
2023-05-22T17:50:52.206Z,20.55
2023-05-22T17:53:21.026Z,20.49
2023-05-22T17:55:50.185Z,20.36
2023-05-22T17:58:17.899Z,20.32
2023-05-22T18:00:46.708Z,20.20
2023-05-22T18:03:14.717Z,20.13
2023-05-22T18:05:43.667Z,20.08
2023-05-22T18:08:11.276Z,20.05
2023-05-22T18:10:38.804Z,19.97
2023-05-22T18:13:06.459Z,19.89
2023-05-22T18:15:33.724Z,19.81
2023-05-22T18:18:01.135Z,19.69
2023-05-22T18:20:28.391Z,19.55
2023-05-22T18:22:56.048Z,19.60
2023-05-22T18:25:23.491Z,19.47
2023-05-22T18:27:50.747Z,19.25
2023-05-22T18:30:18.540Z,19.14
2023-05-22T18:32:46.264Z,19.03
2023-05-22T18:35:13.695Z,18.90
2023-05-22T18:37:41.558Z,18.81
2023-05-22T18:40:10.999Z,18.70
2023-05-22T18:42:39.074Z,18.57
2023-05-22T18:45:07.895Z,18.57
2023-05-22T18:47:35.362Z,18.49
2023-05-22T18:50:04.430Z,18.49
2023-05-22T18:52:31.716Z,18.39
2023-05-22T18:54:59.043Z,18.30
2023-05-22T18:57:26.308Z,18.18
2023-05-22T18:59:53.652Z,17.96
2023-05-22T19:02:22.073Z,17.85
2023-05-22T19:04:50.869Z,17.66
2023-05-22T19:07:18.448Z,17.60
2023-05-22T19:09:46.033Z,17.56
2023-05-22T19:12:13.536Z,17.46
2023-05-22T19:14:40.843Z,17.25
2023-05-22T19:17:08.231Z,17.04
2023-05-22T19:19:35.726Z,16.96
2023-05-22T19:22:03.157Z,16.82
2023-05-22T19:24:31.223Z,16.65
2023-05-22T19:26:58.560Z,16.58
2023-05-22T19:29:26.066Z,16.58
2023-05-22T19:31:53.418Z,16.49
2023-05-22T19:34:20.986Z,16.41
2023-05-22T19:36:50.421Z,16.36
2023-05-22T19:39:17.907Z,16.48
2023-05-22T19:41:45.206Z,16.61
2023-05-22T19:44:12.719Z,16.58
2023-05-22T19:46:40.160Z,16.59
2023-05-22T19:49:07.506Z,16.62
2023-05-22T19:51:34.811Z,16.62
2023-05-22T19:54:02.215Z,16.59
2023-05-22T19:56:30.434Z,16.48
2023-05-22T19:58:57.888Z,16.38
2023-05-22T20:01:25.241Z,16.28
2023-05-22T20:03:54.833Z,16.21
2023-05-22T20:06:22.862Z,16.17
2023-05-22T20:08:50.316Z,16.13
2023-05-22T20:11:17.818Z,16.10
2023-05-22T20:13:45.133Z,16.12
2023-05-22T20:16:12.902Z,15.90
2023-05-22T20:18:41.266Z,15.80
2023-05-22T20:21:09.799Z,15.59
2023-05-22T20:23:37.395Z,15.59
2023-05-22T20:26:06.005Z,15.62
2023-05-22T20:28:33.364Z,15.61
2023-05-22T20:31:00.631Z,15.60
2023-05-22T20:33:28.407Z,15.51
2023-05-22T20:35:55.894Z,15.47
2023-05-22T20:38:23.388Z,15.45
2023-05-22T20:40:51.903Z,15.43
2023-05-22T20:43:20.263Z,15.38
2023-05-22T20:45:48.129Z,15.37
2023-05-22T20:48:16.750Z,15.38
2023-05-22T20:50:47.236Z,15.24
2023-05-22T20:53:15.119Z,15.10
2023-05-22T20:55:42.783Z,15.11
2023-05-22T20:58:10.958Z,15.01
2023-05-22T21:00:41.687Z,15.01
2023-05-22T21:03:09.221Z,14.95
2023-05-22T21:05:36.793Z,14.76
2023-05-22T21:08:04.109Z,14.78
2023-05-22T21:10:31.448Z,14.68
2023-05-22T21:12:58.861Z,14.78
2023-05-22T21:15:26.402Z,14.61
2023-05-22T21:17:53.895Z,14.52
2023-05-22T21:20:21.386Z,14.48
2023-05-22T21:22:49.714Z,14.42
2023-05-22T21:25:17.341Z,14.41
2023-05-22T21:27:46.680Z,14.42
2023-05-22T21:30:15.236Z,14.48
2023-05-22T21:32:43.296Z,14.47
2023-05-22T21:35:10.751Z,14.43
2023-05-22T21:37:38.099Z,14.57
2023-05-22T21:40:06.396Z,14.58
2023-05-22T21:42:45.008Z,14.59
2023-05-22T21:45:14.548Z,14.48
2023-05-22T21:47:41.937Z,14.42
2023-05-22T21:50:10.028Z,14.44
2023-05-22T21:52:37.298Z,14.45
2023-05-22T21:55:05.085Z,14.35
2023-05-22T21:57:32.330Z,14.44
2023-05-22T21:59:59.661Z,14.43
2023-05-22T22:02:26.943Z,14.48
2023-05-22T22:04:54.325Z,14.36
2023-05-22T22:07:21.571Z,14.36
2023-05-22T22:09:49.749Z,14.36
2023-05-22T22:12:17.021Z,14.33
2023-05-22T22:14:44.321Z,14.31
2023-05-22T22:17:11.620Z,14.24
2023-05-22T22:19:40.246Z,14.31
2023-05-22T22:22:07.636Z,14.31
2023-05-22T22:24:34.984Z,14.12
2023-05-22T22:27:02.357Z,14.04
2023-05-22T22:29:29.636Z,14.04
2023-05-22T22:31:56.948Z,14.03
2023-05-22T22:34:24.449Z,14.05
2023-05-22T22:36:51.818Z,14.06
2023-05-22T22:39:19.075Z,14.07
2023-05-22T22:41:46.254Z,14.05
2023-05-22T22:44:14.013Z,14.07
2023-05-22T22:46:42.693Z,14.07
2023-05-22T22:49:10.278Z,14.00
2023-05-22T22:51:37.847Z,13.93
2023-05-22T22:54:05.478Z,13.93
2023-05-22T22:56:32.754Z,13.94
2023-05-22T22:59:00.019Z,14.03
2023-05-22T23:01:27.362Z,13.94
2023-05-22T23:03:54.789Z,14.11
2023-05-22T23:06:23.883Z,14.18
2023-05-22T23:08:51.241Z,14.06
2023-05-22T23:11:18.469Z,13.89
2023-05-22T23:13:45.978Z,13.89
2023-05-22T23:16:13.371Z,13.83
2023-05-22T23:18:40.835Z,13.80
2023-05-22T23:21:08.080Z,13.76
2023-05-22T23:23:35.398Z,13.74
2023-05-22T23:26:02.586Z,13.76
2023-05-22T23:28:29.942Z,13.79
2023-05-22T23:30:57.495Z,13.80
2023-05-22T23:33:24.729Z,13.77
2023-05-22T23:35:52.021Z,13.74
2023-05-22T23:38:19.404Z,13.75
2023-05-22T23:40:46.696Z,13.63
2023-05-22T23:43:13.989Z,13.57
2023-05-22T23:45:41.600Z,13.46
2023-05-22T23:48:09.078Z,13.41
2023-05-22T23:50:36.265Z,13.48
2023-05-22T23:53:04.080Z,13.44
2023-05-22T23:55:31.513Z,13.46
2023-05-22T23:57:58.690Z,13.30
